METAR Data
IDs: Format: Raw Decoded Include TAF

Data at: 2321 UTC 26 Feb 2020

KRZL 262315Z AUTO 32015G20KT 10SM SCT024 BKN042 OVC048 M01/M05 A3004 RMK AO2